Time;durP1;ratioP1;P1;durP2;ratioP2;P2;SDS_P1;SDS_P2;PMS_P1;PMS_P2;Temp;Humidity;BMP_temperature;BMP_pressure;BME280_temperature;BME280_humidity;BME280_pressure;Samples;Min_cycle;Max_cycle;Signal;HPM_P1;HPM_P2
2021/12/30 00:00:27;;;;;;;3.15;1.02;;;9.20;99.90;;;;;;5079970;28;20036;-87
2021/12/30 00:03:00;;;;;;;4.57;1.17;;;9.10;99.90;;;;;;5080065;28;20071;-87
2021/12/30 00:05:26;;;;;;;5.32;1.73;;;9.10;99.90;;;;;;5080029;28;20036;-87
2021/12/30 00:07:52;;;;;;;1.27;0.40;;;9.10;99.90;;;;;;5079427;28;20085;-87
2021/12/30 00:10:18;;;;;;;0.40;0.30;;;9.00;99.90;;;;;;5080147;28;20096;-87
2021/12/30 00:12:43;;;;;;;7.88;0.88;;;9.20;99.90;;;;;;5063060;28;20085;-87
2021/12/30 00:15:10;;;;;;;5.05;1.75;;;9.10;99.90;;;;;;5059762;28;20101;-87
2021/12/30 00:17:36;;;;;;;18.40;1.42;;;9.00;99.90;;;;;;5059299;28;20445;-87
2021/12/30 00:20:05;;;;;;;8.50;1.60;;;9.00;99.90;;;;;;5059727;28;20067;-87
2021/12/30 00:22:31;;;;;;;6.18;1.80;;;9.00;99.90;;;;;;5059488;28;20032;-87
2021/12/30 00:24:57;;;;;;;2.92;1.02;;;9.00;99.90;;;;;;5075999;28;20040;-87
2021/12/30 00:27:25;;;;;;;6.05;1.75;;;9.00;99.90;;;;;;5059272;28;20039;-87
2021/12/30 00:29:50;;;;;;;5.45;0.52;;;9.00;99.90;;;;;;5059462;28;20101;-87
2021/12/30 00:32:16;;;;;;;5.18;1.48;;;9.00;99.90;;;;;;5070800;28;20547;-87
2021/12/30 00:34:42;;;;;;;11.82;0.77;;;8.90;99.90;;;;;;5079317;28;20031;-87
2021/12/30 00:37:07;;;;;;;4.30;0.82;;;8.90;99.90;;;;;;5078846;28;20044;-86
2021/12/30 00:39:33;;;;;;;9.10;1.88;;;8.90;99.90;;;;;;5079493;28;20032;-87
2021/12/30 00:42:03;;;;;;;7.72;2.70;;;8.80;99.90;;;;;;5079405;28;20043;-87
2021/12/30 00:44:29;;;;;;;9.95;1.98;;;8.80;99.90;;;;;;5079464;28;20040;-87
2021/12/30 00:46:58;;;;;;;4.38;1.10;;;8.80;99.90;;;;;;5078708;28;20046;-87
2021/12/30 00:49:24;;;;;;;6.95;1.85;;;8.70;99.90;;;;;;5079117;28;20031;-87
2021/12/30 00:51:49;;;;;;;2.92;1.50;;;8.70;99.90;;;;;;5079030;28;20046;-87
2021/12/30 00:54:15;;;;;;;3.42;1.05;;;8.70;99.90;;;;;;5079133;28;20067;-86
2021/12/30 00:56:41;;;;;;;12.07;2.08;;;8.70;99.90;;;;;;5078480;28;20072;-87
2021/12/30 00:59:07;;;;;;;3.10;1.13;;;8.70;99.90;;;;;;5079056;28;20044;-87
2021/12/30 01:01:33;;;;;;;3.40;0.50;;;8.70;99.90;;;;;;5079041;28;20046;-87
2021/12/30 01:03:59;;;;;;;5.10;1.45;;;8.70;99.90;;;;;;5095636;28;20044;-87
2021/12/30 01:06:24;;;;;;;5.05;1.33;;;8.70;99.90;;;;;;5078469;28;20032;-87
2021/12/30 01:08:52;;;;;;;6.85;1.27;;;8.70;99.90;;;;;;5078798;28;20507;-87
2021/12/30 01:11:20;;;;;;;0.43;0.43;;;8.70;99.90;;;;;;5078665;28;20039;-87
2021/12/30 01:13:50;;;;;;;0.38;0.10;;;8.70;99.90;;;;;;5078955;28;20089;-87
2021/12/30 01:16:18;;;;;;;1.00;0.70;;;8.60;99.90;;;;;;5095173;28;20043;-87
2021/12/30 01:19:49;;;;;;;6.70;1.75;;;8.60;99.90;;;;;;5077458;28;20046;-87
2021/12/30 01:21:43;;;;;;;1.90;0.85;;;8.60;99.90;;;;;;5060844;28;20093;-87
2021/12/30 01:24:09;;;;;;;8.75;1.23;;;8.60;99.90;;;;;;5082600;28;20113;-87
2021/12/30 01:26:35;;;;;;;12.45;1.48;;;8.60;99.90;;;;;;5072321;28;20122;-87
2021/12/30 01:29:04;;;;;;;3.17;1.15;;;8.60;99.90;;;;;;5090295;28;20119;-86
2021/12/30 01:31:29;;;;;;;1.67;0.50;;;8.60;99.90;;;;;;5065210;28;20492;-86
2021/12/30 01:33:55;;;;;;;7.00;1.00;;;8.60;99.90;;;;;;5072562;27;20175;-86
2021/12/30 01:36:21;;;;;;;0.57;0.43;;;8.40;99.90;;;;;;5093530;28;20110;-87
2021/12/30 01:38:49;;;;;;;2.63;0.80;;;8.40;99.90;;;;;;5088752;28;20463;-86
2021/12/30 01:44:48;;;;;;;8.57;1.85;;;8.20;99.90;;;;;;5074908;28;20066;-86
2021/12/30 01:47:15;;;;;;;0.98;0.40;;;8.20;99.90;;;;;;5078458;28;20040;-86
2021/12/30 01:49:59;;;;;;;12.63;2.97;;;8.30;99.90;;;;;;5081245;28;20067;-86
2021/12/30 01:52:24;;;;;;;7.22;2.35;;;8.40;99.90;;;;;;5087211;28;20039;-86
2021/12/30 01:54:50;;;;;;;12.65;2.25;;;8.50;99.90;;;;;;5078616;28;20035;-86
2021/12/30 01:57:31;;;;;;;3.08;1.33;;;8.60;99.90;;;;;;5073851;28;20051;-86
2021/12/30 01:59:57;;;;;;;14.55;3.78;;;8.60;99.90;;;;;;5080423;28;20088;-87
2021/12/30 02:02:22;;;;;;;5.32;2.55;;;8.60;99.90;;;;;;5084794;28;20040;-86
2021/12/30 02:04:48;;;;;;;5.95;1.65;;;8.70;99.90;;;;;;5064911;28;20043;-86
2021/12/30 02:07:14;;;;;;;2.40;1.20;;;8.80;99.90;;;;;;5076094;28;20118;-87
2021/12/30 02:09:46;;;;;;;6.18;1.17;;;8.80;99.90;;;;;;5063870;28;20499;-86
2021/12/30 02:12:11;;;;;;;9.25;2.40;;;8.80;99.90;;;;;;5074891;28;20113;-87
2021/12/30 02:14:37;;;;;;;5.45;1.90;;;8.80;99.90;;;;;;5072058;27;20035;-87
2021/12/30 02:17:04;;;;;;;1.95;1.15;;;8.80;99.90;;;;;;5092803;28;20043;-86
2021/12/30 02:19:29;;;;;;;12.05;3.33;;;8.90;99.90;;;;;;5085881;27;20054;-87
2021/12/30 02:21:55;;;;;;;2.35;1.15;;;9.00;99.90;;;;;;5101297;27;20035;-87
2021/12/30 02:24:20;;;;;;;5.15;2.42;;;8.90;99.90;;;;;;5079202;28;20039;-86
2021/12/30 02:26:46;;;;;;;2.28;1.05;;;9.00;99.90;;;;;;5079747;28;20409;-87
2021/12/30 02:29:12;;;;;;;3.10;1.83;;;9.00;99.90;;;;;;5068500;28;20054;-87
2021/12/30 02:31:39;;;;;;;9.82;1.10;;;9.00;99.90;;;;;;5078533;28;20032;-87
2021/12/30 02:34:05;;;;;;;1.67;0.98;;;9.00;99.90;;;;;;5089292;27;20049;-87
2021/12/30 02:36:35;;;;;;;0.25;0.25;;;9.10;99.90;;;;;;5096877;28;20076;-87
2021/12/30 02:39:05;;;;;;;5.28;2.20;;;9.10;99.90;;;;;;5097041;27;20035;-86
2021/12/30 02:41:33;;;;;;;17.90;3.90;;;9.20;99.90;;;;;;5078055;28;20041;-87
2021/12/30 02:43:59;;;;;;;6.75;3.33;;;9.30;99.90;;;;;;5094229;27;20563;-87
2021/12/30 02:46:28;;;;;;;6.88;2.05;;;9.30;99.90;;;;;;5081065;28;20412;-87
2021/12/30 02:48:55;;;;;;;4.20;1.48;;;9.40;99.90;;;;;;5085351;28;20085;-87
2021/12/30 02:51:22;;;;;;;7.80;2.80;;;9.40;99.90;;;;;;5072593;28;20058;-87
2021/12/30 02:53:48;;;;;;;22.63;5.22;;;9.50;99.90;;;;;;5087639;27;20110;-86
2021/12/30 02:56:14;;;;;;;6.10;1.92;;;9.50;99.90;;;;;;5079847;28;20050;-87
2021/12/30 02:58:40;;;;;;;5.80;1.83;;;9.50;99.90;;;;;;5061580;28;20048;-87
2021/12/30 03:01:12;;;;;;;5.03;1.90;;;9.60;99.90;;;;;;5088697;28;20485;-87
2021/12/30 03:03:39;;;;;;;12.00;2.53;;;9.60;99.90;;;;;;5103017;27;20035;-87
2021/12/30 03:06:06;;;;;;;0.40;0.30;;;9.60;99.90;;;;;;5082964;28;20493;-87
2021/12/30 03:08:33;;;;;;;14.02;3.42;;;9.60;99.90;;;;;;5085341;28;20082;-87
2021/12/30 03:10:59;;;;;;;15.48;4.00;;;9.60;99.90;;;;;;5076174;27;20035;-87
2021/12/30 03:13:32;;;;;;;10.93;1.85;;;9.70;99.90;;;;;;5100685;27;20476;-86
2021/12/30 03:16:07;;;;;;;10.43;1.65;;;9.70;99.90;;;;;;5117699;27;20043;-86
2021/12/30 03:18:35;;;;;;;9.63;2.55;;;9.70;99.90;;;;;;5077673;28;20067;-87
2021/12/30 03:21:03;;;;;;;10.73;2.50;;;9.70;99.90;;;;;;5060589;28;20050;-87
2021/12/30 03:23:30;;;;;;;5.43;1.75;;;9.80;99.90;;;;;;5080566;28;20031;-87
2021/12/30 03:25:55;;;;;;;11.35;1.23;;;9.80;99.90;;;;;;5063910;28;20044;-87
2021/12/30 03:28:21;;;;;;;0.50;0.50;;;9.80;99.90;;;;;;5078803;27;20127;-85
2021/12/30 03:30:47;;;;;;;12.90;2.05;;;9.90;99.90;;;;;;5085988;27;20023;-87
2021/12/30 03:33:13;;;;;;;2.13;0.90;;;9.80;99.90;;;;;;5108415;27;20122;-86
2021/12/30 03:35:39;;;;;;;3.60;0.65;;;9.80;99.90;;;;;;5086634;28;20119;-86
2021/12/30 03:38:06;;;;;;;2.70;1.02;;;9.80;99.90;;;;;;5079907;28;20078;-87
2021/12/30 03:40:32;;;;;;;9.93;2.55;;;9.80;99.90;;;;;;5080321;28;20031;-87
2021/12/30 03:42:58;;;;;;;4.78;2.17;;;9.90;99.90;;;;;;5088264;27;20492;-86
2021/12/30 03:45:24;;;;;;;0.98;0.63;;;9.90;99.90;;;;;;5114830;27;20088;-87
2021/12/30 03:47:51;;;;;;;16.75;4.75;;;9.90;99.90;;;;;;5086813;27;20074;-87
2021/12/30 03:50:22;;;;;;;7.53;1.98;;;9.90;99.90;;;;;;5063812;28;20043;-87
2021/12/30 03:52:51;;;;;;;8.50;2.92;;;9.90;99.90;;;;;;5060309;28;20081;-87
2021/12/30 03:55:19;;;;;;;2.25;0.63;;;9.90;99.90;;;;;;5076659;28;20077;-87
2021/12/30 03:57:46;;;;;;;6.07;2.15;;;10.00;99.90;;;;;;5059713;28;20135;-87
2021/12/30 04:00:13;;;;;;;8.00;2.38;;;10.00;99.90;;;;;;5060196;28;20036;-87
2021/12/30 04:02:39;;;;;;;7.15;2.13;;;10.00;99.90;;;;;;5060158;28;20036;-87
2021/12/30 04:05:05;;;;;;;5.38;1.85;;;10.00;99.90;;;;;;5076432;28;20119;-87
2021/12/30 04:07:31;;;;;;;11.35;2.70;;;10.00;99.90;;;;;;5059381;28;20493;-87
2021/12/30 04:09:56;;;;;;;6.28;1.15;;;10.00;99.90;;;;;;5076488;28;20116;-87
2021/12/30 04:12:22;;;;;;;41.13;2.83;;;10.10;99.90;;;;;;5076210;28;20119;-87
2021/12/30 04:14:48;;;;;;;4.68;1.88;;;10.10;99.90;;;;;;5076319;28;20032;-86
2021/12/30 04:17:13;;;;;;;2.50;1.60;;;10.00;99.90;;;;;;5075895;28;20044;-86
2021/12/30 04:19:39;;;;;;;18.33;3.80;;;10.00;99.90;;;;;;5076156;28;20046;-87
2021/12/30 04:22:04;;;;;;;20.90;5.13;;;10.10;99.90;;;;;;5076482;28;20044;-87
2021/12/30 04:24:30;;;;;;;5.60;2.92;;;10.10;99.90;;;;;;5093051;28;20072;-87
2021/12/30 04:26:56;;;;;;;4.35;2.10;;;10.10;99.90;;;;;;5075671;28;20548;-87
2021/12/30 04:29:21;;;;;;;3.72;1.80;;;10.20;99.90;;;;;;5076015;28;20040;-87
2021/12/30 04:31:47;;;;;;;7.53;2.28;;;10.20;99.90;;;;;;5059301;28;20040;-87
2021/12/30 04:34:13;;;;;;;7.05;2.65;;;10.20;99.90;;;;;;5059205;28;20143;-87
2021/12/30 04:36:39;;;;;;;6.63;2.53;;;10.20;99.90;;;;;;5058595;28;20043;-86
2021/12/30 04:39:05;;;;;;;4.63;1.35;;;10.20;99.90;;;;;;5059525;28;20105;-87
2021/12/30 04:41:31;;;;;;;9.65;2.40;;;10.30;99.90;;;;;;5075879;28;20040;-86
2021/12/30 04:43:57;;;;;;;3.58;1.63;;;10.30;99.90;;;;;;5075771;28;20036;-86
2021/12/30 04:46:22;;;;;;;3.80;1.95;;;10.30;99.90;;;;;;5075447;28;20036;-87
2021/12/30 04:48:49;;;;;;;5.85;2.33;;;10.40;99.90;;;;;;5059045;28;20043;-86
2021/12/30 04:51:16;;;;;;;12.50;2.88;;;10.40;99.90;;;;;;5075628;28;20452;-87
2021/12/30 04:53:42;;;;;;;2.80;2.05;;;10.40;99.90;;;;;;5058950;28;20378;-86
2021/12/30 04:56:08;;;;;;;6.85;2.95;;;10.40;99.90;;;;;;5072913;28;20404;-86
2021/12/30 04:58:34;;;;;;;3.67;1.83;;;10.50;99.90;;;;;;5095995;28;20051;-87
2021/12/30 05:00:59;;;;;;;4.18;1.83;;;10.50;99.90;;;;;;5059301;28;20071;-87
2021/12/30 05:03:25;;;;;;;2.85;1.50;;;10.50;99.90;;;;;;5083503;28;20472;-87
2021/12/30 05:05:52;;;;;;;7.30;3.67;;;10.50;99.90;;;;;;5078021;28;20059;-87
2021/12/30 05:08:20;;;;;;;1.92;1.38;;;10.50;99.90;;;;;;5078043;28;20039;-86
2021/12/30 05:10:47;;;;;;;8.52;2.75;;;10.60;99.90;;;;;;5060062;28;20039;-86
2021/12/30 05:13:13;;;;;;;7.53;2.80;;;10.60;99.90;;;;;;5058271;28;20036;-86
2021/12/30 05:15:40;;;;;;;1.10;0.70;;;10.60;99.90;;;;;;5061554;28;20508;-87
2021/12/30 05:18:08;;;;;;;13.38;3.85;;;10.60;99.90;;;;;;5061702;28;20043;-87
2021/12/30 05:20:35;;;;;;;5.20;2.65;;;10.70;99.90;;;;;;5057605;28;20071;-87
2021/12/30 05:23:01;;;;;;;1.23;1.10;;;10.70;99.90;;;;;;5057825;28;20050;-87
2021/12/30 05:25:26;;;;;;;4.40;2.08;;;10.70;99.90;;;;;;5067892;28;20659;-87
2021/12/30 05:27:52;;;;;;;12.45;4.60;;;10.70;99.90;;;;;;5094445;28;20130;-87
2021/12/30 05:30:21;;;;;;;7.35;2.78;;;10.70;99.90;;;;;;5094668;28;20048;-87
2021/12/30 05:32:47;;;;;;;5.80;2.85;;;10.80;99.90;;;;;;5078068;28;20461;-86
2021/12/30 05:35:13;;;;;;;11.65;5.18;;;10.90;99.90;;;;;;5061094;28;20028;-87
2021/12/30 05:37:39;;;;;;;8.05;2.45;;;10.80;99.90;;;;;;5061165;28;20118;-87
2021/12/30 05:40:07;;;;;;;2.53;1.88;;;10.90;99.90;;;;;;5082045;28;20028;-86
2021/12/30 05:42:33;;;;;;;4.05;2.67;;;10.80;99.90;;;;;;5073740;28;20093;-87
2021/12/30 05:44:58;;;;;;;8.45;3.95;;;10.90;99.90;;;;;;5077628;28;20032;-87
2021/12/30 05:47:24;;;;;;;10.30;4.28;;;10.90;99.90;;;;;;5078309;28;20084;-87
2021/12/30 05:49:50;;;;;;;3.63;1.45;;;11.00;99.90;;;;;;5081854;28;20122;-87
2021/12/30 05:52:16;;;;;;;6.38;3.05;;;10.90;99.90;;;;;;5082197;28;20035;-86
2021/12/30 05:54:43;;;;;;;3.72;1.80;;;11.00;99.90;;;;;;5082174;28;20034;-86
2021/12/30 05:57:09;;;;;;;7.38;1.55;;;11.00;99.90;;;;;;5099086;28;20074;-87
2021/12/30 05:59:35;;;;;;;2.55;1.63;;;11.70;99.90;;;;;;5092153;28;20031;-87
2021/12/30 06:02:01;;;;;;;3.15;1.52;;;11.00;99.90;;;;;;5062037;28;20043;-87
2021/12/30 06:04:27;;;;;;;4.93;2.90;;;11.40;99.90;;;;;;5080257;28;20040;-86
2021/12/30 06:06:53;;;;;;;7.70;3.30;;;11.10;99.90;;;;;;5062775;28;20039;-87
2021/12/30 06:09:21;;;;;;;9.48;2.85;;;11.10;99.90;;;;;;5061825;28;20089;-87
2021/12/30 06:11:47;;;;;;;7.75;3.38;;;11.10;99.90;;;;;;5061430;28;20032;-87
2021/12/30 06:14:12;;;;;;;3.83;1.92;;;11.10;99.90;;;;;;5061264;28;20085;-87
2021/12/30 06:16:38;;;;;;;7.53;3.60;;;11.10;99.90;;;;;;5060828;28;20040;-87
2021/12/30 06:19:04;;;;;;;9.32;5.25;;;11.10;99.90;;;;;;5061311;28;20039;-87
2021/12/30 06:21:29;;;;;;;3.25;1.70;;;11.20;99.90;;;;;;5076208;28;20565;-87
2021/12/30 06:23:55;;;;;;;6.97;2.60;;;11.20;99.90;;;;;;5069386;28;20036;-86
2021/12/30 06:26:20;;;;;;;2.03;1.08;;;11.20;99.90;;;;;;5060745;28;20128;-86
2021/12/30 06:28:46;;;;;;;4.82;2.55;;;11.20;99.90;;;;;;5073177;28;20488;-87
2021/12/30 06:31:11;;;;;;;10.52;2.92;;;11.20;99.90;;;;;;5061120;28;20075;-87
2021/12/30 06:33:37;;;;;;;9.48;4.95;;;11.30;99.90;;;;;;5067920;28;20056;-87
2021/12/30 06:36:04;;;;;;;1.65;1.08;;;11.30;99.90;;;;;;5060585;28;20040;-86
2021/12/30 06:38:30;;;;;;;4.10;2.10;;;11.30;99.90;;;;;;5067696;28;20093;-87
2021/12/30 06:40:55;;;;;;;9.10;2.47;;;11.30;99.90;;;;;;5097877;28;20442;-87
2021/12/30 06:43:21;;;;;;;2.92;1.85;;;11.30;99.90;;;;;;5080828;28;20036;-86
2021/12/30 06:45:46;;;;;;;2.05;1.33;;;11.30;99.90;;;;;;5070575;28;20063;-86
2021/12/30 06:48:15;;;;;;;1.25;0.73;;;11.30;99.90;;;;;;5077524;28;20088;-87
2021/12/30 06:50:42;;;;;;;3.67;1.40;;;11.30;99.90;;;;;;5080787;28;20102;-87
2021/12/30 06:53:07;;;;;;;3.95;2.17;;;11.30;99.90;;;;;;5075564;28;20111;-87
2021/12/30 06:55:33;;;;;;;1.95;1.45;;;11.30;99.90;;;;;;5060556;28;20082;-87
2021/12/30 06:57:59;;;;;;;7.32;3.03;;;11.30;99.90;;;;;;5062748;28;20717;-86
2021/12/30 07:00:25;;;;;;;2.95;1.23;;;11.30;99.90;;;;;;5080738;28;20042;-87
2021/12/30 07:02:50;;;;;;;2.83;1.13;;;11.30;99.90;;;;;;5080763;28;20039;-86
2021/12/30 07:05:16;;;;;;;2.35;1.38;;;11.30;99.90;;;;;;5080433;28;20126;-87
2021/12/30 07:07:44;;;;;;;1.17;0.82;;;11.30;99.90;;;;;;5060177;28;20538;-86
2021/12/30 07:10:10;;;;;;;2.08;1.25;;;11.30;99.90;;;;;;5060412;28;20036;-86
2021/12/30 07:12:37;;;;;;;0.50;0.50;;;11.30;99.90;;;;;;5072759;28;20115;-86
2021/12/30 07:15:04;;;;;;;1.33;0.50;;;11.30;99.90;;;;;;5061491;28;20039;-86
2021/12/30 07:17:31;;;;;;;0.68;0.47;;;11.30;99.90;;;;;;5092361;28;20382;-86
2021/12/30 07:19:57;;;;;;;0.88;0.73;;;11.40;99.90;;;;;;5080498;28;20047;-86
2021/12/30 07:22:23;;;;;;;1.40;0.70;;;11.40;99.90;;;;;;5095449;28;20036;-86
2021/12/30 07:24:49;;;;;;;2.05;0.95;;;11.40;99.90;;;;;;5070035;28;20039;-87
2021/12/30 07:27:14;;;;;;;0.50;0.50;;;11.40;99.90;;;;;;5059602;28;20071;-87
2021/12/30 07:29:40;;;;;;;0.77;0.43;;;11.40;99.90;;;;;;5060069;28;20036;-87
2021/12/30 07:32:06;;;;;;;1.33;0.80;;;11.40;99.90;;;;;;5066459;28;20034;-87
2021/12/30 07:34:31;;;;;;;1.27;0.63;;;11.40;99.90;;;;;;5087495;28;20484;-86
2021/12/30 07:36:57;;;;;;;1.45;0.68;;;11.40;99.90;;;;;;5111156;27;20039;-86
2021/12/30 07:39:22;;;;;;;1.70;0.82;;;11.40;99.90;;;;;;5075705;28;20176;-87
2021/12/30 07:41:48;;;;;;;1.88;1.23;;;11.40;99.90;;;;;;5080402;27;20118;-87
2021/12/30 07:44:15;;;;;;;2.63;1.52;;;11.40;99.90;;;;;;5060026;28;20040;-87
2021/12/30 07:46:41;;;;;;;0.90;0.60;;;11.50;99.90;;;;;;5058947;28;20044;-87
2021/12/30 07:49:07;;;;;;;1.30;0.98;;;11.50;99.90;;;;;;5065469;28;20042;-87
2021/12/30 07:51:32;;;;;;;1.77;1.08;;;11.50;99.90;;;;;;5070323;28;20089;-87
2021/12/30 07:53:58;;;;;;;2.13;1.27;;;11.50;99.90;;;;;;5082438;28;20036;-87
2021/12/30 07:56:24;;;;;;;2.58;1.40;;;11.50;99.90;;;;;;5078189;28;21873;-87
2021/12/30 07:58:49;;;;;;;1.60;1.17;;;11.50;99.90;;;;;;5079571;28;20499;-87
2021/12/30 08:01:15;;;;;;;2.42;1.35;;;11.50;99.90;;;;;;5097471;27;20042;-86
2021/12/30 08:03:40;;;;;;;1.80;0.82;;;11.60;99.90;;;;;;5091752;28;20127;-86
2021/12/30 08:06:07;;;;;;;2.72;1.65;;;11.50;99.90;;;;;;5086954;27;20046;-87
2021/12/30 08:08:33;;;;;;;2.10;1.40;;;11.60;99.90;;;;;;5096119;28;20400;-87
2021/12/30 08:10:58;;;;;;;3.75;2.10;;;11.60;99.90;;;;;;5070626;28;20028;-87
2021/12/30 08:13:24;;;;;;;2.03;1.20;;;11.70;99.90;;;;;;5078206;27;20458;-87
2021/12/30 08:15:51;;;;;;;3.45;1.98;;;11.70;99.90;;;;;;5064786;28;20050;-87
2021/12/30 08:18:16;;;;;;;6.97;2.72;;;11.70;99.90;;;;;;5060409;28;20079;-87
2021/12/30 08:20:42;;;;;;;1.42;0.68;;;11.80;99.90;;;;;;5081565;28;20067;-87
2021/12/30 08:23:08;;;;;;;2.20;1.65;;;11.80;99.90;;;;;;5079107;28;20555;-87
2021/12/30 08:25:37;;;;;;;5.47;2.10;;;11.80;99.90;;;;;;5078849;28;20489;-87
2021/12/30 08:28:03;;;;;;;4.70;2.78;;;11.90;99.90;;;;;;5070176;28;20043;-87
2021/12/30 08:30:29;;;;;;;3.20;1.65;;;11.90;99.90;;;;;;5058512;28;20028;-87
2021/12/30 08:32:55;;;;;;;4.22;1.55;;;11.90;99.90;;;;;;5076027;27;20027;-87
2021/12/30 08:35:22;;;;;;;4.47;1.88;;;12.00;99.90;;;;;;5079782;28;20047;-87
2021/12/30 08:37:49;;;;;;;2.47;1.05;;;12.00;99.90;;;;;;5078385;28;20043;-87
2021/12/30 08:40:16;;;;;;;5.65;1.80;;;12.10;99.90;;;;;;5093251;28;20050;-87
2021/12/30 08:42:48;;;;;;;2.25;1.00;;;12.10;99.90;;;;;;5081881;28;20040;-87
2021/12/30 08:45:14;;;;;;;4.18;1.67;;;12.10;99.90;;;;;;5075051;28;20039;-87
2021/12/30 08:47:40;;;;;;;3.30;1.00;;;12.10;99.90;;;;;;5079918;28;20036;-87
2021/12/30 08:50:08;;;;;;;2.70;1.10;;;12.10;99.90;;;;;;5095181;27;20039;-87
2021/12/30 08:52:34;;;;;;;2.90;1.33;;;12.10;99.90;;;;;;5072533;28;20209;-87
2021/12/30 08:55:04;;;;;;;6.90;2.05;;;12.20;99.90;;;;;;5073431;28;20061;-86
2021/12/30 08:57:31;;;;;;;3.53;1.30;;;12.20;99.90;;;;;;5057888;28;20032;-87
2021/12/30 08:59:57;;;;;;;3.72;1.67;;;12.10;99.90;;;;;;5058337;28;20040;-87
2021/12/30 09:02:23;;;;;;;2.45;1.10;;;12.20;99.90;;;;;;5058121;28;20043;-87
2021/12/30 09:04:49;;;;;;;2.47;1.33;;;12.10;99.90;;;;;;5077902;28;20094;-87
2021/12/30 09:07:21;;;;;;;1.92;1.35;;;12.20;99.90;;;;;;5059149;28;20615;-87
2021/12/30 09:09:47;;;;;;;9.35;1.75;;;12.10;99.90;;;;;;5057748;28;20035;-87
2021/12/30 09:12:13;;;;;;;3.50;1.70;;;12.20;99.90;;;;;;5076747;28;20044;-87
2021/12/30 09:14:38;;;;;;;4.93;1.42;;;12.20;99.90;;;;;;5069131;28;20032;-87
2021/12/30 09:17:05;;;;;;;1.90;1.38;;;12.20;99.90;;;;;;5063597;28;20520;-87
2021/12/30 09:19:31;;;;;;;2.08;1.23;;;12.20;99.90;;;;;;5057412;28;20036;-87
2021/12/30 09:21:56;;;;;;;0.60;0.47;;;12.20;99.90;;;;;;5063880;28;20039;-87
2021/12/30 09:24:22;;;;;;;6.43;1.95;;;12.10;99.90;;;;;;5062901;28;20422;-87
2021/12/30 09:26:48;;;;;;;2.17;0.93;;;12.10;99.90;;;;;;5076563;27;20031;-88
2021/12/30 09:29:13;;;;;;;2.88;1.35;;;12.10;99.90;;;;;;5082317;28;20089;-87
2021/12/30 09:31:45;;;;;;;2.28;1.30;;;12.50;99.90;;;;;;5091422;27;20110;-87
2021/12/30 09:34:11;;;;;;;6.47;2.33;;;12.20;99.90;;;;;;5065217;28;20047;-87
2021/12/30 09:36:37;;;;;;;1.65;1.17;;;12.20;99.90;;;;;;5078419;28;20042;-87
2021/12/30 09:39:09;;;;;;;5.28;2.45;;;12.20;99.90;;;;;;5079901;28;20063;-87
2021/12/30 09:41:37;;;;;;;3.00;1.63;;;12.20;99.90;;;;;;5059593;28;20039;-87
2021/12/30 09:44:04;;;;;;;1.08;0.60;;;12.20;99.90;;;;;;5075559;28;20077;-87
2021/12/30 09:46:30;;;;;;;6.93;2.95;;;12.20;99.90;;;;;;5076559;28;20075;-88
2021/12/30 09:48:55;;;;;;;11.60;2.22;;;12.20;99.90;;;;;;5058826;28;20063;-87
2021/12/30 09:51:21;;;;;;;3.20;1.13;;;12.30;99.90;;;;;;5060252;28;20403;-87
2021/12/30 09:53:52;;;;;;;8.05;2.67;;;12.60;99.90;;;;;;5065499;28;20032;-87
2021/12/30 09:56:19;;;;;;;8.93;3.03;;;12.30;99.90;;;;;;5076609;28;20485;-87
2021/12/30 09:58:45;;;;;;;5.32;1.35;;;12.30;99.90;;;;;;5089461;28;20040;-88
2021/12/30 10:01:11;;;;;;;5.88;1.13;;;12.30;99.90;;;;;;5075354;28;20047;-87
2021/12/30 10:03:42;;;;;;;5.60;1.75;;;12.30;99.90;;;;;;5083489;28;20083;-88
2021/12/30 10:06:12;;;;;;;7.15;1.98;;;12.30;99.90;;;;;;5076087;28;20040;-87
2021/12/30 10:08:51;;;;;;;5.55;1.60;;;12.30;99.90;;;;;;5065885;28;20032;-88
2021/12/30 10:11:16;;;;;;;8.65;2.38;;;12.30;99.90;;;;;;5067247;28;20036;-88
2021/12/30 10:13:56;;;;;;;4.32;1.33;;;12.30;99.90;;;;;;5071291;28;20504;-87
2021/12/30 10:16:22;;;;;;;7.63;1.98;;;12.30;99.90;;;;;;5062711;28;20422;-87
2021/12/30 10:18:54;;;;;;;4.25;2.00;;;12.30;99.90;;;;;;5082516;28;20039;-87
2021/12/30 10:21:22;;;;;;;5.57;2.10;;;12.30;99.90;;;;;;5069161;28;20040;-87
2021/12/30 10:24:08;;;;;;;3.65;1.88;;;12.30;99.90;;;;;;5092437;28;20050;-88
2021/12/30 10:26:50;;;;;;;;;;;12.30;99.90;;;;;;5085012;28;20122;-87
2021/12/30 10:29:16;;;;;;;4.80;2.45;;;12.30;99.90;;;;;;5072679;28;19978;-87
2021/12/30 10:31:43;;;;;;;4.38;1.75;;;12.20;99.90;;;;;;5081816;28;20064;-87
2021/12/30 10:34:28;;;;;;;5.57;1.98;;;12.30;99.90;;;;;;5109959;27;20035;-87
2021/12/30 10:36:54;;;;;;;3.15;1.40;;;12.20;99.90;;;;;;5060323;28;20484;-87
2021/12/30 10:39:30;;;;;;;6.88;1.45;;;12.30;99.90;;;;;;5060382;28;20032;-87
2021/12/30 10:42:04;;;;;;;8.40;1.95;;;12.20;99.90;;;;;;5060969;28;20051;-87
2021/12/30 10:44:49;;;;;;;5.40;1.58;;;12.20;99.90;;;;;;5060514;28;20039;-87
2021/12/30 10:47:15;;;;;;;6.50;1.85;;;12.20;99.90;;;;;;5059808;28;20086;-87
2021/12/30 10:49:41;;;;;;;8.23;2.10;;;12.20;99.90;;;;;;5063617;28;20032;-87
2021/12/30 10:52:07;;;;;;;3.65;2.17;;;12.20;99.90;;;;;;5060471;28;20055;-87
2021/12/30 10:54:36;;;;;;;6.57;2.28;;;12.20;99.90;;;;;;5078108;28;20040;-87
2021/12/30 10:57:05;;;;;;;8.00;2.25;;;12.30;99.90;;;;;;5071297;28;20070;-87
2021/12/30 10:59:39;;;;;;;5.05;1.63;;;12.30;99.90;;;;;;5069832;28;20127;-87
2021/12/30 11:02:15;;;;;;;10.18;3.58;;;12.30;99.90;;;;;;5078662;28;20404;-87
2021/12/30 11:04:50;;;;;;;3.20;1.50;;;12.30;99.90;;;;;;5088196;28;20122;-87
2021/12/30 11:07:19;;;;;;;4.40;1.23;;;12.30;99.90;;;;;;5079934;28;20077;-87
2021/12/30 11:09:48;;;;;;;13.27;0.82;;;12.70;99.90;;;;;;5080361;28;20037;-88
2021/12/30 11:12:14;;;;;;;9.80;2.10;;;12.20;99.90;;;;;;5080162;28;20074;-87
2021/12/30 11:14:40;;;;;;;17.17;3.67;;;12.20;99.90;;;;;;5084635;28;20205;-87
2021/12/30 11:17:17;;;;;;;11.98;1.92;;;12.30;99.90;;;;;;5096775;28;20048;-87
2021/12/30 11:20:05;;;;;;;10.57;1.52;;;12.20;99.90;;;;;;5096943;28;20040;-88
2021/12/30 11:22:32;;;;;;;2.47;1.05;;;12.30;99.90;;;;;;5064827;28;20108;-87
2021/12/30 11:25:00;;;;;;;13.30;2.42;;;12.30;99.90;;;;;;5076939;28;20048;-88
2021/12/30 11:27:28;;;;;;;16.75;2.10;;;12.30;99.90;;;;;;5059543;28;20466;-87
2021/12/30 11:29:57;;;;;;;9.50;1.88;;;12.30;99.90;;;;;;5060148;28;20082;-87
2021/12/30 11:32:27;;;;;;;18.25;2.95;;;12.30;99.90;;;;;;5060145;28;20397;-87
2021/12/30 11:34:54;;;;;;;4.28;1.70;;;12.30;99.90;;;;;;5079849;28;20442;-88
2021/12/30 11:37:20;;;;;;;4.13;1.40;;;12.30;99.90;;;;;;5079621;28;20432;-87
2021/12/30 11:39:52;;;;;;;8.40;2.50;;;12.30;99.90;;;;;;5059445;28;20039;-88
2021/12/30 11:42:38;;;;;;;10.43;1.50;;;12.20;99.90;;;;;;5060927;28;20489;-88
2021/12/30 11:45:21;;;;;;;2.85;1.15;;;12.30;99.90;;;;;;5075559;28;20101;-88
2021/12/30 11:47:47;;;;;;;9.02;2.42;;;12.30;99.90;;;;;;5076914;28;20036;-87
2021/12/30 11:50:27;;;;;;;10.95;1.83;;;12.30;99.90;;;;;;5059578;28;20040;-88
2021/12/30 11:53:26;;;;;;;16.08;2.78;;;12.30;99.90;;;;;;5073339;28;20643;-88
2021/12/30 11:55:59;;;;;;;4.07;2.17;;;12.30;99.90;;;;;;5076665;28;20083;-88
2021/12/30 11:58:32;;;;;;;4.43;1.10;;;12.40;99.90;;;;;;5095841;28;20035;-87
2021/12/30 12:01:17;;;;;;;10.15;2.33;;;12.40;99.90;;;;;;5079708;28;20040;-88
2021/12/30 12:03:57;;;;;;;8.05;1.73;;;12.40;99.90;;;;;;5063845;28;20039;-88
2021/12/30 12:06:35;;;;;;;3.60;1.63;;;13.00;99.90;;;;;;5058631;28;20133;-87
2021/12/30 12:09:25;;;;;;;10.05;2.33;;;12.40;99.90;;;;;;5059571;28;20047;-88
2021/12/30 12:11:56;;;;;;;13.35;3.90;;;12.40;99.90;;;;;;5059405;28;20047;-87
2021/12/30 12:14:24;;;;;;;6.68;2.47;;;12.50;99.90;;;;;;5060428;28;20435;-88
2021/12/30 12:17:02;;;;;;;8.25;1.63;;;12.50;99.90;;;;;;5079049;28;20122;-88
2021/12/30 12:19:48;;;;;;;8.18;1.67;;;12.50;99.90;;;;;;5075862;28;20104;-88
2021/12/30 12:22:18;;;;;;;7.97;1.73;;;12.50;99.90;;;;;;5075615;28;20451;-88
2021/12/30 12:24:45;;;;;;;7.47;1.67;;;12.50;99.90;;;;;;5066631;28;20043;-88
2021/12/30 12:27:30;;;;;;;3.50;1.45;;;12.50;99.90;;;;;;5070866;28;20468;-88
2021/12/30 12:29:57;;;;;;;2.53;0.80;;;12.50;99.90;;;;;;5059158;28;20036;-88
2021/12/30 12:32:29;;;;;;;7.35;2.83;;;12.50;99.90;;;;;;5058885;28;20485;-88
2021/12/30 12:34:58;;;;;;;9.95;1.48;;;12.50;99.90;;;;;;5058626;28;20032;-88
2021/12/30 12:37:32;;;;;;;5.20;1.92;;;12.50;99.90;;;;;;5058142;28;20067;-88
2021/12/30 12:40:22;;;;;;;11.18;1.60;;;12.50;99.90;;;;;;5058545;28;20043;-88
2021/12/30 12:42:51;;;;;;;10.90;3.70;;;12.50;99.90;;;;;;5064061;28;20055;-88
2021/12/30 12:45:49;;;;;;;2.78;1.40;;;12.50;99.90;;;;;;5058847;28;20056;-88
2021/12/30 12:50:46;;;;;;;8.23;2.42;;;12.50;99.90;;;;;;5087271;28;20058;-88
2021/12/30 12:53:43;;;;;;;7.78;1.67;;;12.60;99.90;;;;;;5059124;28;20098;-88
2021/12/30 12:56:11;;;;;;;6.53;1.67;;;12.60;99.90;;;;;;5074282;28;20130;-88
2021/12/30 12:58:40;;;;;;;5.85;1.45;;;12.60;99.90;;;;;;5075475;28;20123;-87